createdAt,value
2017-05-11T00:00:24.680Z,67.22
2017-05-11T00:01:33.633Z,66.75
2017-05-11T00:02:42.927Z,67.03
2017-05-11T00:03:51.882Z,66.85
2017-05-11T00:05:00.837Z,67.13
2017-05-11T00:06:09.793Z,67.13
2017-05-11T00:07:18.745Z,66.94
2017-05-11T00:08:27.986Z,67.03
2017-05-11T00:09:36.944Z,67.32
2017-05-11T00:10:45.904Z,67.22
2017-05-11T00:11:54.858Z,67.32
2017-05-11T00:13:03.811Z,67.41
2017-05-11T00:14:13.019Z,67.61
2017-05-11T00:15:22.154Z,67.99
2017-05-11T00:16:31.432Z,67.89
2017-05-11T00:17:40.390Z,67.89
2017-05-11T00:18:49.433Z,67.8
2017-05-11T00:19:58.640Z,67.7
2017-05-11T00:21:07.918Z,68.18
2017-05-11T00:22:16.878Z,68.18
2017-05-11T00:23:25.838Z,68.46
2017-05-11T00:24:34.794Z,68.18
2017-05-11T00:25:44.040Z,68.27
2017-05-11T00:26:52.996Z,68.27
2017-05-11T00:28:01.955Z,68.27
2017-05-11T00:29:11.326Z,68.08
2017-05-11T00:30:20.456Z,68.65
2017-05-11T00:31:29.749Z,68.37
2017-05-11T00:32:38.704Z,69.13
2017-05-11T00:33:47.667Z,69.04
2017-05-11T00:34:56.621Z,69.13
2017-05-11T00:36:05.577Z,68.56
2017-05-11T00:37:14.780Z,68.56
2017-05-11T00:38:23.735Z,68.56
2017-05-11T00:39:32.777Z,68.37
2017-05-11T00:40:41.733Z,68.37
2017-05-11T00:41:50.691Z,68.37
2017-05-11T00:42:59.898Z,68.56
2017-05-11T00:44:08.854Z,69.04
2017-05-11T00:45:17.809Z,68.94
2017-05-11T00:46:26.762Z,69.13
2017-05-11T00:47:35.714Z,69.13
2017-05-11T00:48:44.921Z,69.23
2017-05-11T00:49:53.881Z,69.23
2017-05-11T00:51:02.830Z,69.23
2017-05-11T00:52:11.785Z,68.71
2017-05-11T00:53:20.743Z,68.81
2017-05-11T00:54:29.951Z,69.29
2017-05-11T00:55:38.906Z,69.19
2017-05-11T00:56:47.858Z,69.1
2017-05-11T00:57:56.987Z,69
2017-05-11T00:59:05.993Z,69
2017-05-11T01:00:15.205Z,69
2017-05-11T01:01:24.167Z,68.81
2017-05-11T01:02:33.122Z,69.19
2017-05-11T01:03:42.076Z,69.19
2017-05-11T01:04:51.040Z,69.29
2017-05-11T01:06:00.252Z,69.38
2017-05-11T01:07:09.215Z,69.29
2017-05-11T01:08:18.175Z,69.85
2017-05-11T01:09:27.212Z,69.67
2017-05-11T01:10:36.166Z,70.14
2017-05-11T01:11:45.369Z,70.24
2017-05-11T01:12:54.496Z,69.95
2017-05-11T01:14:03.446Z,70.24
2017-05-11T01:15:12.395Z,69.76
2017-05-11T01:16:21.354Z,69.95
2017-05-11T01:17:30.648Z,69.95
2017-05-11T01:18:39.604Z,69.67
2017-05-11T01:19:48.556Z,69.54
2017-05-11T01:20:57.515Z,69.67
2017-05-11T01:22:06.472Z,70.58
2017-05-11T01:23:15.677Z,70.43
2017-05-11T01:24:24.963Z,70.39
2017-05-11T01:25:33.925Z,70.1
2017-05-11T01:26:42.964Z,70.2
2017-05-11T01:27:51.915Z,69.92
2017-05-11T01:29:01.121Z,70.68
2017-05-11T01:30:10.072Z,70.39
2017-05-11T01:31:19.022Z,70.58
2017-05-11T01:32:28.021Z,70.87
2017-05-11T01:33:36.978Z,71.25
2017-05-11T01:34:46.188Z,71.06
2017-05-11T01:35:55.148Z,71.06
2017-05-11T01:37:04.096Z,70.87
2017-05-11T01:38:13.139Z,70.77
2017-05-11T01:39:22.095Z,70.68
2017-05-11T01:40:31.352Z,71.25
2017-05-11T01:41:40.302Z,70.87
2017-05-11T01:42:49.256Z,71.15
2017-05-11T01:43:58.208Z,71.25
2017-05-11T01:45:07.165Z,71.25
2017-05-11T01:46:16.421Z,71.25
2017-05-11T01:47:25.379Z,71.44
2017-05-11T01:48:34.339Z,71.06
2017-05-11T01:49:43.297Z,70.87
2017-05-11T01:50:52.336Z,70.77
2017-05-11T01:52:01.592Z,71.25
2017-05-11T01:53:10.556Z,70.68
2017-05-11T01:54:19.520Z,70.68
2017-05-11T01:55:28.481Z,70.87
2017-05-11T01:56:37.432Z,71.25
2017-05-11T01:57:46.636Z,70.77
2017-05-11T01:58:55.593Z,71.15
2017-05-11T02:00:04.549Z,71.15
2017-05-11T02:01:13.498Z,71.15
2017-05-11T02:02:22.791Z,71.25
2017-05-11T02:03:31.996Z,70.87
2017-05-11T02:04:40.956Z,71.34
2017-05-11T02:05:49.906Z,71.44
2017-05-11T02:06:58.863Z,71.25
2017-05-11T02:08:07.820Z,71.72
2017-05-11T02:09:17.023Z,71.72
2017-05-11T02:10:25.999Z,71.63
2017-05-11T02:11:34.958Z,71.72
2017-05-11T02:12:44.003Z,71.91
2017-05-11T02:13:52.958Z,71.72
2017-05-11T02:15:02.218Z,71.53
2017-05-11T02:16:11.177Z,71.44
2017-05-11T02:17:20.138Z,71.34
2017-05-11T02:18:29.101Z,71.72
2017-05-11T02:19:38.146Z,71.72
2017-05-11T02:20:47.353Z,71.82
2017-05-11T02:21:56.311Z,71.34
2017-05-11T02:23:05.259Z,71.53
2017-05-11T02:24:14.306Z,71.44
2017-05-11T02:25:23.348Z,71.82
2017-05-11T02:26:32.561Z,72.11
2017-05-11T02:27:41.513Z,71.63
2017-05-11T02:28:50.469Z,72.01
2017-05-11T02:29:59.425Z,72.2
2017-05-11T02:31:08.473Z,72.01
2017-05-11T02:32:17.677Z,72.01
2017-05-11T02:33:26.644Z,72.2
2017-05-11T02:34:35.600Z,72.01
2017-05-11T02:35:44.551Z,72.11
2017-05-11T02:36:53.506Z,72.11
2017-05-11T02:38:02.710Z,71.72
2017-05-11T02:39:11.673Z,71.63
2017-05-11T02:40:20.630Z,71.44
2017-05-11T02:41:29.578Z,71.25
2017-05-11T02:42:38.537Z,71.44
2017-05-11T02:43:47.748Z,71.44
2017-05-11T02:44:56.790Z,71.06
2017-05-11T02:46:05.753Z,70.87
2017-05-11T02:47:15.029Z,71.25
2017-05-11T02:48:24.038Z,71.44
2017-05-11T02:49:33.244Z,71.25
2017-05-11T02:50:42.210Z,71.25
2017-05-11T02:51:51.165Z,71.88
2017-05-11T02:53:00.120Z,71.97
2017-05-11T02:54:09.081Z,71.69
2017-05-11T02:55:18.284Z,71.72
2017-05-11T02:56:27.236Z,71.88
2017-05-11T02:57:36.198Z,71.69
2017-05-11T02:58:45.475Z,71.97
2017-05-11T02:59:54.436Z,72.55
2017-05-11T03:01:03.691Z,72.35
2017-05-11T03:02:12.646Z,71.97
2017-05-11T03:03:21.607Z,72.55
2017-05-11T03:04:30.563Z,72.64
2017-05-11T03:05:39.517Z,72.74
2017-05-11T03:06:48.943Z,72.49
2017-05-11T03:07:57.904Z,72.49
2017-05-11T03:09:06.877Z,72.74
2017-05-11T03:10:15.915Z,72.55
2017-05-11T03:11:24.866Z,71.97
2017-05-11T03:12:34.125Z,71.72
2017-05-11T03:13:43.080Z,72.11
2017-05-11T03:14:52.043Z,72.07
2017-05-11T03:16:01.000Z,72.16
2017-05-11T03:17:09.957Z,72.16
2017-05-11T03:18:19.162Z,72.16
2017-05-11T03:19:28.137Z,72.07
2017-05-11T03:20:37.089Z,71.97
2017-05-11T03:21:46.043Z,71.88
2017-05-11T03:22:55.000Z,71.97
2017-05-11T03:24:04.329Z,71.88
2017-05-11T03:25:13.285Z,72.55
2017-05-11T03:26:22.332Z,72.45
2017-05-11T03:27:31.286Z,72.92
2017-05-11T03:28:40.242Z,72.55
2017-05-11T03:29:49.532Z,72.55
2017-05-11T03:30:58.492Z,73.3
2017-05-11T03:32:07.445Z,72.74
2017-05-11T03:33:16.491Z,72.83
2017-05-11T03:34:25.441Z,72.64
2017-05-11T03:35:34.645Z,73.21
2017-05-11T03:36:43.595Z,73.25
2017-05-11T03:37:52.548Z,73.15
2017-05-11T03:39:01.501Z,72.77
2017-05-11T03:40:10.460Z,72.58
2017-05-11T03:41:19.992Z,72.55
2017-05-11T03:42:28.948Z,72.92
2017-05-11T03:43:37.907Z,73.15
2017-05-11T03:44:46.862Z,72.96
2017-05-11T03:45:55.856Z,72.77
2017-05-11T03:47:05.060Z,72.49
2017-05-11T03:48:14.013Z,72.49
2017-05-11T03:49:22.966Z,72.58
2017-05-11T03:50:31.920Z,73.15
2017-05-11T03:51:40.869Z,73.15
2017-05-11T03:52:50.085Z,72.96
2017-05-11T03:53:59.043Z,73.25
2017-05-11T03:55:07.999Z,72.86
2017-05-11T03:56:17.281Z,73.06
2017-05-11T03:57:26.231Z,72.86
2017-05-11T03:58:35.489Z,73.06
2017-05-11T03:59:44.537Z,73.06
2017-05-11T04:00:53.491Z,72.58
2017-05-11T04:02:02.780Z,72.67
2017-05-11T04:03:11.739Z,72.67
2017-05-11T04:04:20.953Z,72.96
2017-05-11T04:05:29.906Z,72.58
2017-05-11T04:06:38.855Z,72.39
2017-05-11T04:07:47.805Z,72.3
2017-05-11T04:08:56.765Z,72.58
2017-05-11T04:10:05.967Z,72.39
2017-05-11T04:11:14.925Z,73.06
2017-05-11T04:12:23.879Z,72.58
2017-05-11T04:13:32.832Z,72.58
2017-05-11T04:14:41.788Z,72.05
2017-05-11T04:15:50.997Z,71.76
2017-05-11T04:17:00.038Z,72.24
2017-05-11T04:18:08.989Z,71.95
2017-05-11T04:19:17.942Z,72.01
2017-05-11T04:20:26.900Z,72.42
2017-05-11T04:21:36.109Z,72.52
2017-05-11T04:22:45.059Z,72.42
2017-05-11T04:23:54.018Z,72.52
2017-05-11T04:25:02.971Z,72.71
2017-05-11T04:26:11.922Z,72.62
2017-05-11T04:27:21.130Z,72.42
2017-05-11T04:28:30.088Z,72.14
2017-05-11T04:29:39.129Z,71.86
2017-05-11T04:30:48.089Z,71.86
2017-05-11T04:31:57.131Z,71.76
2017-05-11T04:33:06.389Z,71.57
2017-05-11T04:34:15.345Z,71.67
2017-05-11T04:35:24.619Z,72.05
2017-05-11T04:36:33.571Z,71.86
2017-05-11T04:37:42.700Z,71.86
2017-05-11T04:38:51.948Z,71.76
2017-05-11T04:40:00.903Z,71.47
2017-05-11T04:41:09.855Z,71.47
2017-05-11T04:42:18.813Z,71.76
2017-05-11T04:43:27.853Z,71.86
2017-05-11T04:44:37.108Z,71.95
2017-05-11T04:45:46.068Z,71.86
2017-05-11T04:46:55.017Z,72.14
2017-05-11T04:48:03.978Z,72.24
2017-05-11T04:49:12.988Z,71.95
2017-05-11T04:50:22.342Z,71.67
2017-05-11T04:51:31.300Z,71.76
2017-05-11T04:52:40.260Z,71.67
2017-05-11T04:53:49.221Z,72.14
2017-05-11T04:54:58.182Z,71.86
2017-05-11T04:56:07.473Z,71.19
2017-05-11T04:57:16.516Z,71.09
2017-05-11T04:58:25.808Z,71.28
2017-05-11T04:59:34.764Z,71.76
2017-05-11T05:00:43.808Z,71.95
2017-05-11T05:01:53.011Z,71.95
2017-05-11T05:03:01.971Z,72.62
2017-05-11T05:04:10.926Z,72.52
2017-05-11T05:05:19.887Z,72.62
2017-05-11T05:06:28.842Z,72.33
2017-05-11T05:07:38.046Z,71.89
2017-05-11T05:08:47.009Z,71.8
2017-05-11T05:09:56.050Z,71.32
2017-05-11T05:11:05.008Z,71.7
2017-05-11T05:12:13.972Z,71.32
2017-05-11T05:13:23.277Z,71.03
2017-05-11T05:14:32.235Z,70.65
2017-05-11T05:15:41.187Z,70.65
2017-05-11T05:16:50.175Z,70.18
2017-05-11T05:17:59.130Z,70.37
2017-05-11T05:19:08.335Z,70.18
2017-05-11T05:20:17.613Z,70.65
2017-05-11T05:21:26.578Z,70.08
2017-05-11T05:22:35.533Z,70.18
2017-05-11T05:23:44.496Z,69.99
2017-05-11T05:24:53.705Z,69.99
2017-05-11T05:26:02.661Z,69.99
2017-05-11T05:27:11.945Z,70.08
2017-05-11T05:28:20.896Z,70.75
2017-05-11T05:29:29.943Z,70.75
2017-05-11T05:30:39.148Z,70.18
2017-05-11T05:31:48.190Z,70.08
2017-05-11T05:32:57.151Z,69.6
2017-05-11T05:34:06.112Z,69.79
2017-05-11T05:35:15.073Z,69.74
2017-05-11T05:36:24.276Z,69.74
2017-05-11T05:37:33.237Z,69.93
2017-05-11T05:38:42.192Z,70.4
2017-05-11T05:39:51.155Z,70.31
2017-05-11T05:41:00.120Z,70.08
2017-05-11T05:42:09.755Z,70.27
2017-05-11T05:43:18.726Z,70.5
2017-05-11T05:44:27.817Z,70.4
2017-05-11T05:45:36.767Z,70.4
2017-05-11T05:46:45.720Z,70.4
2017-05-11T05:47:54.928Z,70.02
2017-05-11T05:49:03.875Z,69.26
2017-05-11T05:50:12.921Z,69.54
2017-05-11T05:51:21.872Z,69.17
2017-05-11T05:52:30.832Z,69.64
2017-05-11T05:53:40.037Z,69.54
2017-05-11T05:54:49.083Z,69.17
2017-05-11T05:55:58.118Z,69.64
2017-05-11T05:57:07.091Z,69.45
2017-05-11T05:58:16.372Z,69.26
2017-05-11T05:59:25.664Z,69.35
2017-05-11T06:00:34.619Z,69.54
2017-05-11T06:01:43.569Z,69.07
2017-05-11T06:02:52.527Z,68.78
2017-05-11T06:04:01.495Z,68.72
2017-05-11T06:05:10.701Z,68.5
2017-05-11T06:06:19.659Z,68.21
2017-05-11T06:07:28.783Z,68.34
2017-05-11T06:08:37.738Z,67.86
2017-05-11T06:09:46.827Z,68.05
2017-05-11T06:10:56.082Z,67.48
2017-05-11T06:12:05.433Z,68.24
2017-05-11T06:13:15.569Z,68.63
2017-05-11T06:14:25.099Z,67.86
2017-05-11T06:15:34.143Z,67.77
2017-05-11T06:16:43.757Z,67.86
2017-05-11T06:17:56.032Z,67.39
2017-05-11T06:19:06.892Z,67.1
2017-05-11T06:20:16.067Z,66.82
2017-05-11T06:21:27.805Z,66.53
2017-05-11T06:22:37.012Z,65.86
2017-05-11T06:23:51.911Z,65.58
2017-05-11T06:25:07.962Z,65.39
2017-05-11T06:26:20.283Z,64.91
2017-05-11T06:27:34.074Z,64.43
2017-05-11T06:28:43.149Z,63.96
2017-05-11T06:29:52.110Z,63.67
2017-05-11T06:31:01.110Z,63.6
2017-05-11T06:32:10.273Z,63.7
2017-05-11T06:33:19.731Z,63.32
2017-05-11T06:34:28.914Z,63.32
2017-05-11T06:35:38.109Z,63.32
2017-05-11T06:36:47.174Z,63.23
2017-05-11T06:37:56.375Z,63.32
2017-05-11T06:39:05.855Z,62.75
2017-05-11T06:40:15.003Z,62.37
2017-05-11T06:41:23.975Z,62.46
2017-05-11T06:42:32.929Z,62.27
2017-05-11T06:43:41.906Z,61.89
2017-05-11T06:44:51.205Z,62.08
2017-05-11T06:46:00.187Z,61.89
2017-05-11T06:47:09.148Z,62.56
2017-05-11T06:48:18.109Z,62.46
2017-05-11T06:49:27.069Z,61.99
2017-05-11T06:50:36.280Z,61.41
2017-05-11T06:51:45.317Z,61.44
2017-05-11T06:52:54.322Z,60.78
2017-05-11T06:54:03.370Z,61.16
2017-05-11T06:55:12.883Z,61.63
2017-05-11T06:56:22.354Z,61.35
2017-05-11T06:57:31.558Z,60.78
2017-05-11T06:58:40.613Z,60.58
2017-05-11T06:59:50.530Z,60.58
2017-05-11T07:00:59.490Z,59.92
2017-05-11T07:02:08.778Z,59.82
2017-05-11T07:03:17.737Z,59.63
2017-05-11T07:04:26.783Z,59.44
2017-05-11T07:05:36.265Z,59.06
2017-05-11T07:06:45.220Z,58.9
2017-05-11T07:07:54.435Z,59.06
2017-05-11T07:09:03.489Z,58.77
2017-05-11T07:10:13.365Z,58.48
2017-05-11T07:11:22.317Z,58.14
2017-05-11T07:12:31.277Z,58.04
2017-05-11T07:13:40.532Z,57.85
2017-05-11T07:14:49.755Z,57.28
2017-05-11T07:15:58.729Z,57.46
2017-05-11T07:17:07.778Z,57.37
2017-05-11T07:18:16.749Z,57.75
2017-05-11T07:19:26.084Z,56.99
2017-05-11T07:20:35.218Z,57.28
2017-05-11T07:21:44.172Z,56.89
2017-05-11T07:22:53.213Z,56.89
2017-05-11T07:24:03.044Z,56.51
2017-05-11T07:25:12.620Z,56.13
2017-05-11T07:26:21.586Z,56.41
2017-05-11T07:27:30.631Z,56.23
2017-05-11T07:28:40.029Z,56.41
2017-05-11T07:29:50.244Z,56.41
2017-05-11T07:31:00.231Z,56.35
2017-05-11T07:32:09.536Z,56.13
2017-05-11T07:33:18.512Z,55.94
2017-05-11T07:34:27.493Z,55.46
2017-05-11T07:35:36.474Z,54.91
2017-05-11T07:36:45.843Z,55.18
2017-05-11T07:37:54.832Z,54.99
2017-05-11T07:39:03.817Z,55.18
2017-05-11T07:40:12.910Z,55.01
2017-05-11T07:41:22.185Z,54.91
2017-05-11T07:42:31.513Z,54.82
2017-05-11T07:43:40.496Z,54.91
2017-05-11T07:44:49.476Z,55.11
2017-05-11T07:45:58.458Z,54.63
2017-05-11T07:47:07.441Z,54.63
2017-05-11T07:48:16.811Z,54.53
2017-05-11T07:49:25.842Z,54.06
2017-05-11T07:50:34.823Z,54.15
2017-05-11T07:51:43.801Z,53.86
2017-05-11T07:52:52.792Z,53.96
2017-05-11T07:54:02.085Z,53.58
2017-05-11T07:55:11.063Z,53.77
2017-05-11T07:56:20.039Z,53.29
2017-05-11T07:57:29.021Z,53.2
2017-05-11T07:58:38.009Z,53.2
2017-05-11T07:59:47.237Z,53.2
2017-05-11T08:00:56.215Z,53.2
2017-05-11T08:02:05.285Z,53.29
2017-05-11T08:03:14.269Z,53.22
2017-05-11T08:04:23.348Z,53.32
2017-05-11T08:05:32.584Z,53.22
2017-05-11T08:06:41.563Z,52.75
2017-05-11T08:07:50.551Z,52.65
2017-05-11T08:08:59.624Z,52.46
2017-05-11T08:10:08.710Z,52.17
2017-05-11T08:11:17.992Z,52.08
2017-05-11T08:12:27.070Z,51.7
2017-05-11T08:13:36.141Z,51.6
2017-05-11T08:14:45.124Z,51.7
2017-05-11T08:15:54.125Z,52.08
2017-05-11T08:17:03.449Z,51.62
2017-05-11T08:18:12.434Z,51.7
2017-05-11T08:19:21.419Z,51.62
2017-05-11T08:20:30.399Z,51.53
2017-05-11T08:21:39.475Z,50.86
2017-05-11T08:22:48.708Z,50.76
2017-05-11T08:23:58.029Z,50.67
2017-05-11T08:25:07.006Z,50.48
2017-05-11T08:26:15.992Z,50.29
2017-05-11T08:27:24.975Z,50.38
2017-05-11T08:28:34.206Z,50.76
2017-05-11T08:29:43.172Z,50.12
2017-05-11T08:30:52.135Z,50.21
2017-05-11T08:32:01.097Z,49.74
2017-05-11T08:33:10.061Z,49.35
2017-05-11T08:34:19.623Z,49.35
2017-05-11T08:35:28.590Z,49.45
2017-05-11T08:36:37.873Z,49.45
2017-05-11T08:37:46.832Z,48.49
2017-05-11T08:38:55.793Z,48.68
2017-05-11T08:40:05.011Z,48.68
2017-05-11T08:41:14.381Z,48.88
2017-05-11T08:42:23.345Z,48.68
2017-05-11T08:43:32.383Z,48.21
2017-05-11T08:44:41.565Z,47.82
2017-05-11T08:45:51.125Z,47.92
2017-05-11T08:47:00.189Z,47.92
2017-05-11T08:48:09.151Z,47.63
2017-05-11T08:49:18.371Z,47.73
2017-05-11T08:50:27.476Z,48.11
2017-05-11T08:51:36.733Z,48.39
2017-05-11T08:52:45.772Z,48.88
2017-05-11T08:53:54.823Z,48.88
2017-05-11T08:55:04.009Z,48.3
2017-05-11T08:56:13.192Z,48.02
2017-05-11T08:57:22.506Z,48.02
2017-05-11T08:58:31.751Z,48.02
2017-05-11T08:59:40.717Z,47.92
2017-05-11T09:00:49.681Z,48.21
2017-05-11T09:01:58.639Z,48.11
2017-05-11T09:03:07.850Z,47.94
2017-05-11T09:04:16.813Z,47.92
2017-05-11T09:05:25.771Z,47.92
2017-05-11T09:06:34.737Z,48.02
2017-05-11T09:07:43.693Z,47.92
2017-05-11T09:08:52.899Z,48.3
2017-05-11T09:10:01.860Z,48.21
2017-05-11T09:11:10.912Z,48.39
2017-05-11T09:12:19.869Z,48.49
2017-05-11T09:13:28.831Z,48.3
2017-05-11T09:14:38.094Z,48.3
2017-05-11T09:15:47.053Z,48.04
2017-05-11T09:16:56.015Z,47.85
2017-05-11T09:18:04.975Z,48.04
2017-05-11T09:19:13.934Z,47.56
2017-05-11T09:20:23.204Z,48.13
2017-05-11T09:21:32.234Z,47.66
2017-05-11T09:22:41.198Z,47.85
2017-05-11T09:23:50.167Z,47.66
2017-05-11T09:24:59.125Z,47.94
2017-05-11T09:26:08.424Z,47.94
2017-05-11T09:27:17.384Z,47.27
2017-05-11T09:28:26.344Z,47.47
2017-05-11T09:29:35.350Z,47.37
2017-05-11T09:30:44.314Z,46.89
2017-05-11T09:31:53.523Z,46.62
2017-05-11T09:33:02.493Z,46.82
2017-05-11T09:34:11.454Z,46.82
2017-05-11T09:35:20.500Z,46.53
2017-05-11T09:36:29.458Z,46.22
2017-05-11T09:37:38.677Z,46.8
2017-05-11T09:38:47.634Z,46.53
2017-05-11T09:39:56.591Z,46.82
2017-05-11T09:41:05.657Z,46.53
2017-05-11T09:42:14.619Z,46.7
2017-05-11T09:43:23.864Z,47.49
2017-05-11T09:44:32.821Z,47.49
2017-05-11T09:45:41.781Z,48.16
2017-05-11T09:46:50.751Z,47.58
2017-05-11T09:47:59.738Z,47.68
2017-05-11T09:49:08.968Z,47.87
2017-05-11T09:50:18.253Z,47.32
2017-05-11T09:51:27.222Z,46.55
2017-05-11T09:52:36.180Z,46.55
2017-05-11T09:53:45.140Z,46.75
2017-05-11T09:54:54.353Z,46.36
2017-05-11T09:56:03.315Z,46.36
2017-05-11T09:57:12.363Z,45.89
2017-05-11T09:58:21.323Z,46.46
2017-05-11T09:59:30.380Z,46.46
2017-05-11T10:00:39.593Z,45.79
2017-05-11T10:01:48.560Z,45.89
2017-05-11T10:02:57.523Z,45.4
2017-05-11T10:04:06.487Z,45.12
2017-05-11T10:05:15.449Z,45.4
2017-05-11T10:06:24.748Z,45.79
2017-05-11T10:07:33.706Z,46.17
2017-05-11T10:08:42.749Z,45.79
2017-05-11T10:09:51.714Z,45.23
2017-05-11T10:11:00.678Z,45.04
2017-05-11T10:12:09.897Z,44.37
2017-05-11T10:13:18.880Z,44.56
2017-05-11T10:14:27.934Z,44.27
2017-05-11T10:15:36.895Z,43.99
2017-05-11T10:16:45.851Z,43.7
2017-05-11T10:17:55.063Z,43.8
2017-05-11T10:19:04.033Z,44.09
2017-05-11T10:20:12.987Z,43.99
2017-05-11T10:21:21.945Z,43.7
2017-05-11T10:22:31.240Z,43.6
2017-05-11T10:23:40.454Z,43.51
2017-05-11T10:24:49.413Z,43.8
2017-05-11T10:25:58.374Z,43.6
2017-05-11T10:27:07.335Z,43.51
2017-05-11T10:28:16.295Z,43.99
2017-05-11T10:29:25.592Z,43.6
2017-05-11T10:30:34.553Z,43.6
2017-05-11T10:31:43.554Z,43.51
2017-05-11T10:32:52.600Z,43.03
2017-05-11T10:34:01.924Z,43.03
2017-05-11T10:35:11.130Z,43.13
2017-05-11T10:36:20.091Z,43.03
2017-05-11T10:37:29.048Z,43.03
2017-05-11T10:38:38.011Z,43.05
2017-05-11T10:39:46.977Z,42.77
2017-05-11T10:40:56.186Z,43.05
2017-05-11T10:42:05.148Z,42.77
2017-05-11T10:43:14.199Z,42.67
2017-05-11T10:44:23.334Z,43.05
2017-05-11T10:45:32.299Z,42.96
2017-05-11T10:46:41.510Z,42.77
2017-05-11T10:47:50.471Z,42.47
2017-05-11T10:48:59.435Z,42.38
2017-05-11T10:50:08.394Z,42.29
2017-05-11T10:51:17.441Z,42.38
2017-05-11T10:52:26.737Z,42.67
2017-05-11T10:53:35.700Z,42.57
2017-05-11T10:54:44.667Z,42.38
2017-05-11T10:55:53.632Z,42.02
2017-05-11T10:57:02.687Z,41.8
2017-05-11T10:58:12.235Z,41.9
2017-05-11T10:59:21.193Z,41.71
2017-05-11T11:00:30.236Z,41.61
2017-05-11T11:01:39.196Z,41.83
2017-05-11T11:02:48.156Z,41.54
2017-05-11T11:03:57.365Z,41.73
2017-05-11T11:05:06.319Z,41.63
2017-05-11T11:06:15.601Z,41.73
2017-05-11T11:07:24.557Z,41.63
2017-05-11T11:08:33.551Z,41.44
2017-05-11T11:09:42.850Z,41.25
2017-05-11T11:10:51.812Z,41.35
2017-05-11T11:12:00.771Z,41.06
2017-05-11T11:13:09.751Z,40.87
2017-05-11T11:14:18.727Z,41.16
2017-05-11T11:15:27.939Z,40.87
2017-05-11T11:16:36.902Z,40.89
2017-05-11T11:17:45.948Z,40.7
2017-05-11T11:18:54.914Z,40.89
2017-05-11T11:20:03.963Z,40.41
2017-05-11T11:21:13.183Z,40.79
2017-05-11T11:22:22.147Z,40.22
2017-05-11T11:23:31.195Z,40.7
2017-05-11T11:24:40.148Z,40.31
2017-05-11T11:25:49.109Z,40.22
2017-05-11T11:26:58.372Z,40.22
2017-05-11T11:28:07.332Z,40.22
2017-05-11T11:29:16.309Z,40.12
2017-05-11T11:30:25.267Z,39.93
2017-05-11T11:31:34.219Z,40.14
2017-05-11T11:32:43.430Z,40.02
2017-05-11T11:33:52.394Z,39.95
2017-05-11T11:35:01.358Z,39.76
2017-05-11T11:36:10.317Z,39.85
2017-05-11T11:37:19.362Z,39.85
2017-05-11T11:38:28.748Z,39.56
2017-05-11T11:39:37.703Z,39.28
2017-05-11T11:40:46.669Z,39.47
2017-05-11T11:41:55.719Z,39.18
2017-05-11T11:43:04.680Z,39.28
2017-05-11T11:44:13.889Z,39.28
2017-05-11T11:45:22.851Z,39.37
2017-05-11T11:46:31.809Z,39.56
2017-05-11T11:47:40.779Z,39.47
2017-05-11T11:48:49.740Z,39.56
2017-05-11T11:49:58.999Z,39.28
2017-05-11T11:51:07.969Z,39.47
2017-05-11T11:52:17.341Z,39.47
2017-05-11T11:53:26.347Z,39.18
2017-05-11T11:54:35.322Z,39.56
2017-05-11T11:55:44.541Z,39.56
2017-05-11T11:56:53.588Z,39.47
2017-05-11T11:58:02.552Z,39.56
2017-05-11T11:59:11.521Z,39.66
2017-05-11T12:00:20.483Z,39.76
2017-05-11T12:01:29.701Z,39.37
2017-05-11T12:02:38.751Z,39.18
2017-05-11T12:03:47.716Z,38.6
2017-05-11T12:04:57.003Z,38.7
2017-05-11T12:06:05.963Z,38.79
2017-05-11T12:07:15.176Z,38.34
2017-05-11T12:08:24.142Z,37.95
2017-05-11T12:09:33.187Z,38.34
2017-05-11T12:10:42.149Z,38.24
2017-05-11T12:11:51.112Z,38.24
2017-05-11T12:13:00.326Z,37.76
2017-05-11T12:14:10.038Z,37.85
2017-05-11T12:15:18.999Z,37.37
2017-05-11T12:16:28.010Z,37.37
2017-05-11T12:17:36.975Z,36.8
2017-05-11T12:18:46.188Z,37.08
2017-05-11T12:19:55.148Z,36.9
2017-05-11T12:21:04.105Z,36.8
2017-05-11T12:22:13.209Z,36.41
2017-05-11T12:23:22.174Z,36.22
2017-05-11T12:24:31.440Z,36.7
2017-05-11T12:25:40.401Z,36.32
2017-05-11T12:26:49.364Z,36.9
2017-05-11T12:27:58.331Z,36.6
2017-05-11T12:29:07.293Z,36.41
2017-05-11T12:30:16.507Z,36.51
2017-05-11T12:31:25.467Z,36.53
2017-05-11T12:32:34.432Z,36.43
2017-05-11T12:33:43.398Z,36.8
2017-05-11T12:34:52.356Z,36.91
2017-05-11T12:36:01.581Z,37.3
2017-05-11T12:37:10.547Z,37.1
2017-05-11T12:38:19.520Z,37.2
2017-05-11T12:39:28.481Z,37.1
2017-05-11T12:40:37.532Z,37.2
2017-05-11T12:41:46.743Z,37.2
2017-05-11T12:42:55.703Z,37.59
2017-05-11T12:44:04.667Z,37.3
2017-05-11T12:45:13.624Z,37.39
2017-05-11T12:46:22.910Z,37.49
2017-05-11T12:47:32.123Z,36.82
2017-05-11T12:48:41.082Z,36.91
2017-05-11T12:49:50.041Z,36.43
2017-05-11T12:50:59.005Z,36.62
2017-05-11T12:52:07.966Z,36.53
2017-05-11T12:53:17.318Z,36.82
2017-05-11T12:54:26.276Z,36.53
2017-05-11T12:55:35.238Z,36.62
2017-05-11T12:56:44.194Z,36.82
2017-05-11T12:57:53.155Z,37.01
2017-05-11T12:59:02.366Z,37.01
2017-05-11T13:00:11.329Z,36.72
2017-05-11T13:01:20.380Z,37.39
2017-05-11T13:02:29.345Z,37.49
2017-05-11T13:03:38.314Z,37.1
2017-05-11T13:04:47.853Z,37.1
2017-05-11T13:05:56.896Z,37.1
2017-05-11T13:07:05.863Z,36.91
2017-05-11T13:08:14.825Z,36.62
2017-05-11T13:09:23.788Z,36.72
2017-05-11T13:10:32.997Z,36.53
2017-05-11T13:11:42.045Z,36.33
2017-05-11T13:12:51.332Z,36.43
2017-05-11T13:14:00.288Z,36.74
2017-05-11T13:15:09.595Z,36.62
2017-05-11T13:16:18.808Z,36.53
2017-05-11T13:17:27.782Z,36.33
2017-05-11T13:18:36.747Z,36.05
2017-05-11T13:19:45.717Z,36.24
2017-05-11T13:20:54.672Z,36.33
2017-05-11T13:22:03.889Z,36.05
2017-05-11T13:23:12.849Z,36.15
2017-05-11T13:24:21.894Z,36.15
2017-05-11T13:25:30.855Z,36.15
2017-05-11T13:26:39.902Z,36.05
2017-05-11T13:27:49.118Z,36.05
2017-05-11T13:28:58.082Z,36.15
2017-05-11T13:30:07.053Z,35.58
2017-05-11T13:31:16.339Z,35.3
2017-05-11T13:32:25.307Z,36.25
2017-05-11T13:33:34.533Z,35.58
2017-05-11T13:34:43.505Z,35
2017-05-11T13:35:52.464Z,35.2
2017-05-11T13:37:01.424Z,35
2017-05-11T13:38:10.390Z,35.3
2017-05-11T13:39:19.599Z,35.2
2017-05-11T13:40:28.560Z,34.91
2017-05-11T13:41:37.520Z,35.3
2017-05-11T13:42:46.570Z,35.1
2017-05-11T13:43:55.614Z,35.58
2017-05-11T13:45:04.823Z,36.16
2017-05-11T13:46:14.131Z,36.18
2017-05-11T13:47:23.097Z,35.79
2017-05-11T13:48:32.066Z,35.5
2017-05-11T13:49:41.118Z,35.12
2017-05-11T13:50:50.334Z,34.74
2017-05-11T13:51:59.301Z,34.54
2017-05-11T13:53:08.358Z,33.97
2017-05-11T13:54:17.333Z,34.16
2017-05-11T13:55:26.303Z,34.64
2017-05-11T13:56:35.518Z,34.25
2017-05-11T13:57:44.481Z,33.67
2017-05-11T13:58:53.491Z,33.87
2017-05-11T14:00:02.457Z,32.52
2017-05-11T14:01:11.422Z,32.23
2017-05-11T14:02:20.689Z,32.04
2017-05-11T14:03:29.747Z,31.75
2017-05-11T14:04:38.707Z,31.65
2017-05-11T14:05:47.673Z,30.88
2017-05-11T14:06:56.635Z,30.98
2017-05-11T14:08:05.853Z,30.69
2017-05-11T14:09:14.828Z,30.21
2017-05-11T14:10:23.790Z,30.6
2017-05-11T14:11:32.751Z,30.11
2017-05-11T14:12:41.717Z,30.31
2017-05-11T14:13:51.010Z,30.4
2017-05-11T14:14:59.979Z,30.69
2017-05-11T14:16:08.941Z,30.6
2017-05-11T14:17:17.941Z,30.98
2017-05-11T14:18:26.999Z,31.46
2017-05-11T14:19:36.207Z,31.37
2017-05-11T14:20:45.255Z,31.85
2017-05-11T14:21:54.253Z,31.65
2017-05-11T14:23:03.302Z,31.85
2017-05-11T14:24:12.265Z,31.65
2017-05-11T14:25:21.480Z,31.95
2017-05-11T14:26:30.454Z,32.52
2017-05-11T14:27:39.503Z,32.43
2017-05-11T14:28:48.466Z,31.85
2017-05-11T14:29:57.429Z,31.56
2017-05-11T14:31:06.644Z,32.04
2017-05-11T14:32:15.697Z,32.14
2017-05-11T14:33:24.656Z,32.33
2017-05-11T14:34:33.713Z,31.85
2017-05-11T14:35:42.690Z,31
2017-05-11T14:36:51.901Z,30.5
2017-05-11T14:38:00.870Z,30.6
2017-05-11T14:39:09.845Z,31.08
2017-05-11T14:40:18.813Z,30.69
2017-05-11T14:41:27.781Z,30.11
2017-05-11T14:42:37.001Z,29.63
2017-05-11T14:43:45.968Z,29.83
2017-05-11T14:44:54.940Z,29.15
2017-05-11T14:46:03.902Z,29.63
2017-05-11T14:47:12.862Z,29.74
2017-05-11T14:48:22.084Z,29.83
2017-05-11T14:49:31.051Z,30.22
2017-05-11T14:50:40.010Z,30.31
2017-05-11T14:51:49.293Z,30.22
2017-05-11T14:52:58.298Z,30.22